Latest Weather Observations for Eildon Fire Tower

IDV60801

Issued at 7:31 am EST Thursday 28 May 2015 (issued every 30 minutes, with the page automatically refreshed every 10 minutes)

About weather observations | Map of weather stations | Latest weather observations for VIC | Other Formats
Station Details ID: 088164 Name: EILDON FIRE TOWER Lat: -37.21 Lon: 145.84 Height: 637.0 m
Data from the previous 72 hours. | See also: Recent months at Eildon Fire Tower
Date/Time
EST
Temp
°C
App
Temp
°C
Dew
Point
Rel
Hum
%
Delta-T
°C
Wind Press
QNH
hPa
Press
MSL
hPa
Rain
since 9 am
mm
Dir
 
Spd
km/h
Gust
km/h
Spd
kts
Gust
kts
28/07:30am 9.1 6.0 8.8 98 0.2 NE 15 19 8 10 - - -
28/07:00am 9.4 7.1 9.1 98 0.2 NE 11 17 6 9 - - -
28/06:30am 9.5 7.6 9.2 98 0.2 NNE 9 15 5 8 - - -
28/06:00am 9.9 8.5 9.6 98 0.2 N 7 13 4 7 - - -
28/05:30am 10.0 8.6 9.7 98 0.2 NW 7 13 4 7 - - -
28/05:00am 9.9 7.4 9.6 98 0.2 NNE 13 17 7 9 - - -
28/04:30am 10.0 7.1 9.7 98 0.2 N 15 20 8 11 - - -
28/04:00am 9.8 8.0 9.5 98 0.2 NNE 9 13 5 7 - - -
28/03:30am 10.0 8.6 9.7 98 0.2 N 7 13 4 7 - - -
28/03:00am 9.8 8.0 9.5 98 0.2 NNE 9 20 5 11 - - 2.0
28/02:30am 9.7 7.1 9.2 97 0.3 NE 13 24 7 13 - - -
28/02:00am 9.7 6.7 9.4 98 0.2 NNE 15 24 8 13 - - -
28/01:30am 9.6 8.1 9.1 97 0.3 N 7 13 4 7 - - -
28/01:00am 9.6 6.2 9.1 97 0.3 NNE 17 22 9 12 - - -
28/12:30am 9.4 6.7 8.9 97 0.3 NNE 13 19 7 10 - - -
28/12:00am 9.2 5.7 8.7 97 0.3 NNE 17 22 9 12 - - -
 
Date/Time
EST
Temp
°C
App
Temp
°C
Dew
Point
Rel
Hum
%
Delta-T
°C
Wind Press
QNH
hPa
Press
MSL
hPa
Rain
since 9 am
mm
Dir
 
Spd
km/h
Gust
km/h
Spd
kts
Gust
kts
27/11:30pm 9.3 5.8 8.8 97 0.3 NNE 17 24 9 13 - - -
27/11:00pm 9.2 6.4 8.6 96 0.3 NNE 13 17 7 9 - - -
27/10:30pm 9.2 6.0 8.6 96 0.3 NNE 15 19 8 10 - - -
27/10:00pm 9.1 5.5 8.3 95 0.4 NE 17 22 9 12 - - -
27/09:30pm 9.3 5.7 8.5 95 0.4 NE 17 22 9 12 - - -
27/09:00pm 9.1 5.1 8.2 94 0.4 NE 19 24 10 13 - - 0.0
27/08:30pm 9.3 5.3 8.4 94 0.5 NE 19 22 10 12 - - -
27/08:00pm 9.2 5.2 8.3 94 0.5 NE 19 24 10 13 - - -
27/07:30pm 9.3 5.7 8.2 93 0.6 NE 17 20 9 11 - - -
27/07:00pm 9.3 5.3 8.2 93 0.6 NE 19 20 10 11 - - -
27/06:30pm 9.3 5.7 8.2 93 0.6 NE 17 20 9 11 - - -
27/06:00pm 9.3 6.0 8.1 92 0.6 NE 15 20 8 11 - - -
27/05:30pm 9.6 5.9 8.0 90 0.8 NE 17 24 9 13 - - -
27/05:00pm 10.2 6.5 8.1 87 1.1 NE 17 24 9 13 - - -
27/04:30pm 10.5 7.6 8.3 86 1.1 NE 13 19 7 10 - - -
27/04:00pm 11.5 9.1 8.5 82 1.5 NE 11 15 6 8 - - -
27/03:30pm 11.4 8.5 8.3 81 1.6 NE 13 19 7 10 - - -
27/03:00pm 11.9 10.2 8.4 79 1.8 NE 7 15 4 8 - - -
27/02:30pm 12.2 10.1 8.3 77 2.0 NNE 9 15 5 8 - - -
27/02:00pm 12.8 10.4 8.7 76 2.1 NE 11 19 6 10 - - -
27/01:00pm 11.5 8.0 7.4 76 2.0 NE 15 24 8 13 - - 0.2
27/12:30pm 10.5 6.2 7.0 79 1.7 NE 19 24 10 13 - - 0.2
27/12:00pm 10.2 6.9 6.5 78 1.8 NE 13 24 7 13 - - 0.2
27/11:30am 11.0 6.7 7.1 77 1.9 NE 19 26 10 14 - - 0.0
27/11:00am 10.3 5.8 7.0 80 1.6 NE 20 30 11 16 - - 0.0
27/10:30am 9.5 5.5 6.8 83 1.3 NE 17 22 9 12 - - 0.0
27/10:00am 9.1 5.0 6.4 83 1.3 NE 17 22 9 12 - - 0.0
27/09:30am 8.5 3.5 6.5 87 1.0 NE 22 26 12 14 - - 0.0
27/09:00am 8.2 3.1 6.0 86 1.0 NE 22 28 12 15 - - 0.0
27/08:30am 8.1 2.6 6.1 87 0.9 NE 24 32 13 17 - - 0.0
27/08:00am 7.8 2.3 5.9 88 0.9 ENE 24 30 13 16 - - 0.0
27/07:30am 7.6 2.9 6.1 90 0.7 NE 20 26 11 14 - - 0.0
27/07:00am 7.0 1.6 6.3 95 0.3 NE 24 32 13 17 - - 0.0
27/06:30am 7.5 2.8 6.0 90 0.7 NE 20 26 11 14 - - 0.0
27/06:00am 7.6 3.8 5.9 89 0.8 NE 15 19 8 10 - - 0.0
27/05:30am 7.7 3.9 5.8 88 0.9 NE 15 20 8 11 - - 0.0
27/05:00am 8.2 5.2 6.0 86 1.0 NE 11 17 6 9 - - 0.0
27/04:30am 7.5 4.1 6.1 91 0.7 NE 13 13 7 7 - - 0.0
27/04:00am 6.9 3.5 6.0 94 0.4 NE 13 13 7 7 - - 0.0
27/03:30am 6.9 3.6 6.2 95 0.3 NE 13 15 7 8 - - 0.0
27/03:00am 7.2 3.9 6.5 95 0.3 NE 13 15 7 8 - - 0.0
27/02:30am 7.0 3.3 6.3 95 0.3 NE 15 17 8 9 - - 0.0
27/02:00am 7.5 3.8 6.3 92 0.6 NNE 15 19 8 10 - - 0.0
27/01:30am 7.5 3.0 6.3 92 0.6 NE 19 22 10 12 - - 0.0
27/01:00am 7.5 4.2 6.3 92 0.6 NE 13 17 7 9 - - 0.0
27/12:30am 8.0 5.0 6.1 88 0.9 NE 11 15 6 8 - - 0.0
27/12:00am 7.8 4.9 6.3 90 0.7 NE 11 15 6 8 - - 0.0
 
Date/Time
EST
Temp
°C
App
Temp
°C
Dew
Point
Rel
Hum
%
Delta-T
°C
Wind Press
QNH
hPa
Press
MSL
hPa
Rain
since 9 am
mm
Dir
 
Spd
km/h
Gust
km/h
Spd
kts
Gust
kts
26/11:30pm 7.8 5.5 5.8 87 0.9 NNE 7 13 4 7 - - 0.0
26/11:00pm 8.2 5.9 5.5 83 1.3 NNE 7 9 4 5 - - 0.0
26/10:30pm 8.5 6.3 5.4 81 1.4 N 6 6 3 3 - - 0.0
26/10:00pm 8.7 6.5 5.3 79 1.6 N 6 6 3 3 - - 0.0
26/09:30pm 8.9 6.8 5.6 80 1.6 N 6 7 3 4 - - 0.0
26/09:00pm 9.0 7.2 5.4 78 1.7 N 4 6 2 3 - - 0.0
26/08:30pm 8.7 6.9 5.3 79 1.6 NE 4 6 2 3 - - 0.0
26/08:00pm 9.0 6.6 5.4 78 1.7 NNE 7 7 4 4 - - 0.0
26/07:30pm 9.0 6.7 5.6 79 1.6 NNE 7 9 4 5 - - 0.0
26/07:00pm 9.1 6.4 5.5 78 1.7 NNE 9 13 5 7 - - 0.0
26/06:30pm 8.8 5.7 5.5 80 1.5 NE 11 13 6 7 - - 0.0
26/06:00pm 8.9 6.1 5.3 78 1.7 NNE 9 11 5 6 - - 0.0
26/05:30pm 9.4 7.6 5.6 77 1.8 NE 4 6 2 3 - - 0.0
26/05:00pm 9.4 7.2 5.2 75 2.0 NE 6 7 3 4 - - 0.0
26/04:30pm 9.6 7.2 5.4 75 2.0 NE 7 7 4 4 - - 0.0
26/04:00pm 9.5 7.3 5.3 75 2.0 NNE 6 7 3 4 - - 0.0
26/03:30pm 9.5 7.7 5.3 75 2.0 NE 4 6 2 3 - - 0.0
26/03:00pm 10.2 8.5 6.0 75 2.0 NE 4 6 2 3 - - 0.0
26/02:30pm 10.7 9.0 6.1 73 2.2 NNE 4 6 2 3 - - 0.0
26/02:00pm 9.9 8.1 5.3 73 2.2 NNE 4 6 2 3 - - 0.0
26/01:30pm 10.7 8.4 5.9 72 2.3 NNE 7 9 4 5 - - 0.0
26/01:00pm 9.8 7.5 5.6 75 2.0 NE 7 11 4 6 - - 0.0
26/12:30pm 11.3 9.0 5.6 68 2.7 NNE 7 11 4 6 - - 0.0
26/12:00pm 9.9 7.5 5.1 72 2.3 NNE 7 11 4 6 - - 0.0
26/11:30am 8.9 6.6 5.5 79 1.6 ENE 7 9 4 5 - - 0.0
26/11:00am 9.5 7.0 4.5 71 2.3 ENE 7 9 4 5 - - 0.0
26/10:30am 10.4 8.6 5.2 70 2.5 ENE 4 6 2 3 - - 0.0
26/10:00am 10.4 8.4 4.5 67 2.7 E 4 6 2 3 - - 0.0
26/09:30am 8.1 5.0 3.6 73 2.0 E 9 13 5 7 - - 0.0
26/09:00am 6.9 3.3 3.0 76 1.7 E 11 13 6 7 - - 0.0
26/08:30am 6.9 4.0 2.6 74 1.9 E 7 7 4 4 - - 0.0
26/08:00am 5.6 2.2 1.9 77 1.5 ESE 9 11 5 6 - - 0.0
26/07:30am 5.5 2.1 1.8 77 1.5 E 9 11 5 6 - - 0.0
26/07:00am 5.1 1.7 1.6 78 1.4 E 9 11 5 6 - - 0.0
26/06:30am 4.6 0.3 0.7 76 1.6 ESE 13 15 7 8 - - 0.0
26/06:00am 4.6 0.8 2.0 83 1.1 ESE 11 15 6 8 - - 0.0
26/05:30am 5.0 1.7 2.2 82 1.2 E 9 11 5 6 - - 0.0
26/05:00am 4.2 0.4 1.6 83 1.1 ESE 11 15 6 8 - - 0.0
26/04:30am 4.5 0.7 1.9 83 1.1 ESE 11 13 6 7 - - 0.0
26/04:00am 4.9 1.1 1.9 81 1.2 E 11 13 6 7 - - 0.0
26/03:30am 4.5 0.8 2.2 85 1.0 E 11 11 6 6 - - 0.0
26/03:00am 5.0 0.9 2.0 81 1.3 ESE 13 13 7 7 - - 0.0
26/02:30am 4.7 0.9 1.9 82 1.2 E 11 11 6 6 - - 0.0
26/02:00am 6.1 2.8 2.6 78 1.5 ESE 9 9 5 5 - - 0.0
26/01:30am 5.5 1.5 2.7 82 1.2 E 13 15 7 8 - - 0.0
26/01:00am 5.6 1.6 2.8 82 1.2 E 13 15 7 8 - - 0.0
26/12:30am 6.1 2.9 3.3 82 1.2 E 9 11 5 6 - - 0.0
26/12:00am 6.6 3.0 3.2 79 1.5 E 11 13 6 7 - - 0.0
 
Date/Time
EST
Temp
°C
App
Temp
°C
Dew
Point
Rel
Hum
%
Delta-T
°C
Wind Press
QNH
hPa
Press
MSL
hPa
Rain
since 9 am
mm
Dir
 
Spd
km/h
Gust
km/h
Spd
kts
Gust
kts
25/11:30pm 6.2 2.3 3.4 82 1.2 E 13 15 7 8 - - 0.0
25/11:00pm 6.4 2.5 3.2 80 1.4 E 13 15 7 8 - - 0.0
25/10:30pm 6.6 3.5 3.4 80 1.4 E 9 13 5 7 - - 0.0
25/10:00pm 6.4 3.3 3.7 83 1.2 ENE 9 9 5 5 - - 0.0
25/09:30pm 6.8 3.3 3.6 80 1.4 ENE 11 13 6 7 - - 0.0
25/09:00pm 7.5 4.4 3.7 77 1.7 NE 9 11 5 6 - - 0.0
25/08:30pm 7.0 3.9 3.8 80 1.4 NE 9 9 5 5 - - 0.0
25/08:00pm 7.6 4.9 3.8 77 1.7 NE 7 9 4 5 - - 0.0
25/07:30pm 7.5 4.9 3.4 75 1.8 NE 6 6 3 3 - - 0.0
25/07:00pm 7.6 5.0 4.2 79 1.5 NE 7 9 4 5 - - 0.0
25/06:30pm 7.4 5.0 4.4 81 1.4 NE 6 7 3 4 - - 0.0
25/06:00pm 7.7 5.1 4.3 79 1.5 NE 7 9 4 5 - - 0.0
25/05:30pm 7.9 5.3 4.1 77 1.7 NE 7 9 4 5 - - 0.0
25/05:00pm 8.1 5.4 3.9 75 1.9 NE 7 7 4 4 - - 0.0
25/04:30pm 9.2 6.8 4.2 71 2.3 NE 6 7 3 4 - - 0.0
25/04:00pm 10.2 8.3 4.8 69 2.5 NNE 4 7 2 4 - - 0.0
25/03:30pm 10.1 8.2 4.9 70 2.4 NE 4 6 2 3 - - 0.0
25/03:00pm 9.7 7.3 4.3 69 2.5 NE 6 9 3 5 - - 0.0
25/02:30pm 10.1 7.6 4.0 66 2.8 NNE 6 9 3 5 - - 0.0
25/02:00pm 10.0 8.7 5.8 75 2.0 NW 2 6 1 3 - - 0.0
25/01:30pm 9.4 7.9 5.2 75 2.0 NW 2 4 1 2 - - 0.0
25/01:00pm 8.3 6.6 6.1 86 1.0 NW 4 6 2 3 - - 0.0
25/12:30pm 8.2 7.3 6.0 86 1.0 CALM 0 2 0 1 - - 0.0
25/12:00pm 8.3 6.4 4.7 78 1.7 WNW 4 4 2 2 - - 0.0
25/11:30am 7.4 5.5 4.7 83 1.2 WNW 4 4 2 2 - - 0.0
25/11:00am 7.9 6.3 4.3 78 1.6 W 2 6 1 3 - - 0.0
25/10:30am 6.6 4.0 4.4 86 1.0 W 7 9 4 5 - - 0.0
25/10:00am 7.7 4.9 2.2 68 2.4 WNW 6 6 3 3 - - 0.0
25/09:30am 7.7 5.5 3.2 73 2.0 WNW 4 6 2 3 - - 0.0
25/09:00am 7.3 4.8 1.4 66 2.5 WNW 4 4 2 2 - - 0.0
25/08:30am 6.7 3.7 2.0 72 2.0 WNW 7 7 4 4 - - 0.0
25/08:00am 6.2 3.8 2.1 75 1.7 WSW 4 7 2 4 - - 0.0

Other Formats:

Comma delimited format used in spreadsheet applications
http://www.bom.gov.au/fwo/IDV60801/IDV60801.94881.axf

JavaScript Object Notation format (JSON) in row-major order
http://www.bom.gov.au/fwo/IDV60801/IDV60801.94881.json